Available data for KLBE from the past 2 hours
LATROBE/WESTMORL, PA
Metar
KLBE 250835Z AUTO 22004KT 4SM RA FEW001 BKN033 OVC047 16/16 A3020 RMK AO2

08:35 UTC

Wind: 220° 4kt

Visibility: 4 SM

Sky: FEW 100 ft

Temp: 16 deg C / 60.8 deg F

Dewpoint: 16 deg C / 60.8 deg F

Pressure: 30.2 inHg

TAF
KLBE 250655Z 2507/2606 13010G15KT P6SM -RA OVC050 WS020/15040KT FM250900 16010KT 5SM -RA OVC015 WS020/15040KT FM251200 17010KT 4SM -SHRA OVC010 FM251500 20009KT P6SM VCSH OVC010 FM252000 21008KT P6SM VCSH OVC050